createdAt,value
2018-08-09T00:00:27.912Z,63.10
2018-08-09T00:02:57.071Z,63.20
2018-08-09T00:05:26.091Z,62.40
2018-08-09T00:07:55.217Z,63.70
2018-08-09T00:10:24.262Z,63.40
2018-08-09T00:12:53.297Z,63.10
2018-08-09T00:15:22.455Z,63.00
2018-08-09T00:17:51.607Z,63.30
2018-08-09T00:20:20.579Z,63.40
2018-08-09T00:22:49.710Z,63.40
2018-08-09T00:25:19.747Z,63.70
2018-08-09T00:27:49.761Z,63.70
2018-08-09T00:30:18.787Z,64.50
2018-08-09T00:32:47.781Z,64.10
2018-08-09T00:35:16.855Z,63.90
2018-08-09T00:37:45.905Z,63.20
2018-08-09T00:40:14.957Z,63.20
2018-08-09T00:42:44.014Z,63.20
2018-08-09T00:45:13.124Z,63.50
2018-08-09T00:47:42.160Z,63.40
2018-08-09T00:50:11.337Z,64.70
2018-08-09T00:52:40.364Z,64.40
2018-08-09T00:55:09.473Z,64.10
2018-08-09T00:57:38.524Z,63.90
2018-08-09T01:00:07.691Z,63.60
2018-08-09T01:02:36.953Z,63.90
2018-08-09T01:05:06.053Z,63.70
2018-08-09T01:07:35.144Z,64.00
2018-08-09T01:10:05.175Z,63.80
2018-08-09T01:12:34.240Z,64.50
2018-08-09T01:15:03.363Z,64.80
2018-08-09T01:17:32.475Z,64.10
2018-08-09T01:20:01.875Z,64.70
2018-08-09T01:22:30.933Z,64.00
2018-08-09T01:25:00.033Z,64.00
2018-08-09T01:27:29.111Z,64.20
2018-08-09T01:29:58.201Z,64.20
2018-08-09T01:34:56.021Z,64.70
2018-08-09T01:37:25.109Z,63.90
2018-08-09T01:39:54.260Z,64.90
2018-08-09T01:42:34.840Z,64.90
2018-08-09T01:45:03.906Z,64.90
2018-08-09T01:47:32.956Z,64.70
2018-08-09T01:50:02.416Z,64.50
2018-08-09T01:52:31.434Z,64.90
2018-08-09T01:55:00.633Z,65.50
2018-08-09T01:57:29.780Z,65.00
2018-08-09T01:59:58.792Z,65.30
2018-08-09T02:02:27.920Z,66.10
2018-08-09T02:04:57.426Z,67.40
2018-08-09T02:07:26.641Z,66.60
2018-08-09T02:09:55.732Z,68.30
2018-08-09T02:12:24.834Z,68.80
2018-08-09T02:14:53.900Z,68.50
2018-08-09T02:17:23.056Z,68.00
2018-08-09T02:19:52.094Z,68.10
2018-08-09T02:22:21.173Z,69.10
2018-08-09T02:24:50.187Z,69.30
2018-08-09T02:27:19.295Z,69.60
2018-08-09T02:29:48.630Z,69.00
2018-08-09T02:32:17.720Z,70.40
2018-08-09T02:34:46.736Z,70.60
2018-08-09T02:37:15.778Z,70.20
2018-08-09T02:39:44.852Z,69.00
2018-08-09T02:42:13.999Z,70.40
2018-08-09T02:44:43.070Z,69.60
2018-08-09T02:47:12.192Z,70.00
2018-08-09T02:49:41.260Z,71.10
2018-08-09T02:52:10.339Z,71.70
2018-08-09T02:54:39.484Z,70.40
2018-08-09T02:57:08.504Z,71.80
2018-08-09T02:59:37.554Z,73.00
2018-08-09T03:02:06.656Z,72.70
2018-08-09T03:04:35.688Z,72.80
2018-08-09T03:07:04.734Z,72.10
2018-08-09T03:09:33.839Z,72.40
2018-08-09T03:12:02.934Z,72.20
2018-08-09T03:14:32.088Z,70.90
2018-08-09T03:17:01.077Z,70.80
2018-08-09T03:19:31.092Z,72.40
2018-08-09T03:22:00.173Z,71.10
2018-08-09T03:24:29.242Z,71.70
2018-08-09T03:26:58.309Z,72.20
2018-08-09T03:29:27.473Z,72.30
2018-08-09T03:31:56.553Z,71.90
2018-08-09T03:34:25.620Z,70.60
2018-08-09T03:36:54.661Z,70.40
2018-08-09T03:39:23.744Z,71.10
2018-08-09T03:41:52.832Z,70.90
2018-08-09T03:44:21.862Z,72.40
2018-08-09T03:46:50.972Z,71.30
2018-08-09T03:49:20.106Z,71.20
2018-08-09T03:51:49.348Z,72.30
2018-08-09T03:54:18.484Z,71.70
2018-08-09T03:56:47.597Z,71.70
2018-08-09T03:59:16.572Z,71.40
2018-08-09T04:01:45.654Z,71.60
2018-08-09T04:04:14.664Z,71.40
2018-08-09T04:06:43.745Z,70.80
2018-08-09T04:09:12.862Z,71.80
2018-08-09T04:11:41.959Z,71.30
2018-08-09T04:14:11.327Z,71.50
2018-08-09T04:16:40.455Z,72.70
2018-08-09T04:19:09.619Z,70.80
2018-08-09T04:21:38.689Z,71.50
2018-08-09T04:24:07.860Z,72.00
2018-08-09T04:26:37.001Z,72.20
2018-08-09T04:29:06.021Z,71.60
2018-08-09T04:31:35.199Z,71.80
2018-08-09T04:34:04.316Z,71.10
2018-08-09T04:36:33.364Z,71.70
2018-08-09T04:39:02.396Z,71.80
2018-08-09T04:41:31.491Z,72.70
2018-08-09T04:44:00.640Z,72.40
2018-08-09T04:46:29.674Z,72.70
2018-08-09T04:48:58.624Z,72.90
2018-08-09T04:51:27.684Z,73.40
2018-08-09T04:53:56.740Z,72.90
2018-08-09T04:56:25.924Z,73.00
2018-08-09T04:58:54.968Z,73.10
2018-08-09T05:01:24.026Z,72.80
2018-08-09T05:03:53.152Z,72.90
2018-08-09T05:06:22.248Z,71.90
2018-08-09T05:08:51.303Z,72.00
2018-08-09T05:13:40.512Z,72.70
2018-08-09T05:16:10.400Z,72.30
2018-08-09T05:18:39.436Z,72.10
2018-08-09T05:21:08.788Z,72.50
2018-08-09T05:23:37.915Z,72.20
2018-08-09T05:26:07.314Z,72.00
2018-08-09T05:28:36.424Z,71.90
2018-08-09T05:31:05.487Z,72.60
2018-08-09T05:33:34.706Z,72.60
2018-08-09T05:36:03.836Z,72.20
2018-08-09T05:38:32.916Z,72.30
2018-08-09T05:41:01.930Z,72.80
2018-08-09T05:43:32.033Z,72.50
2018-08-09T05:46:01.100Z,72.70
2018-08-09T05:48:30.676Z,73.00
2018-08-09T05:50:59.806Z,72.80
2018-08-09T05:53:28.926Z,72.70
2018-08-09T05:55:58.052Z,72.80
2018-08-09T05:58:27.112Z,72.90
2018-08-09T06:00:56.186Z,73.50
2018-08-09T06:03:25.340Z,72.50
2018-08-09T06:05:54.316Z,72.10
2018-08-09T06:08:23.417Z,72.10
2018-08-09T06:10:52.485Z,71.80
2018-08-09T06:13:21.567Z,71.80
2018-08-09T06:15:50.669Z,71.70
2018-08-09T06:18:20.004Z,71.60
2018-08-09T06:20:49.129Z,71.70
2018-08-09T06:23:18.193Z,71.60
2018-08-09T06:25:47.386Z,71.60
2018-08-09T06:28:16.617Z,71.90
2018-08-09T06:30:45.749Z,71.90
2018-08-09T06:33:14.881Z,71.90
2018-08-09T06:35:44.213Z,72.10
2018-08-09T06:38:13.228Z,71.80
2018-08-09T06:40:42.329Z,71.70
2018-08-09T06:43:11.332Z,71.60
2018-08-09T06:45:40.663Z,71.80
2018-08-09T06:48:09.722Z,71.80
2018-08-09T06:50:38.871Z,71.70
2018-08-09T06:53:07.985Z,71.90
2018-08-09T06:55:37.080Z,71.80
2018-08-09T06:58:06.502Z,71.50
2018-08-09T07:00:35.580Z,71.70
2018-08-09T07:03:04.664Z,71.40
2018-08-09T07:05:33.788Z,71.30
2018-08-09T07:08:02.932Z,71.90
2018-08-09T07:10:32.032Z,71.90
2018-08-09T07:13:01.243Z,72.00
2018-08-09T07:15:30.346Z,72.20
2018-08-09T07:17:59.402Z,72.00
2018-08-09T07:20:28.540Z,71.90
2018-08-09T07:22:57.590Z,71.80
2018-08-09T07:25:26.768Z,72.00
2018-08-09T07:27:55.852Z,72.20
2018-08-09T07:30:24.958Z,71.90
2018-08-09T07:32:54.036Z,72.40
2018-08-09T07:35:23.095Z,72.50
2018-08-09T07:37:52.142Z,73.30
2018-08-09T07:40:21.312Z,72.70
2018-08-09T07:42:50.343Z,73.10
2018-08-09T07:45:19.427Z,75.00
2018-08-09T07:47:48.517Z,73.70
2018-08-09T07:50:17.595Z,76.30
2018-08-09T07:52:46.720Z,79.40
2018-08-09T07:55:15.743Z,78.30
2018-08-09T07:57:44.795Z,77.00
2018-08-09T08:00:13.795Z,78.80
2018-08-09T08:02:42.940Z,79.30
2018-08-09T08:05:12.029Z,79.30
2018-08-09T08:07:41.232Z,81.40
2018-08-09T08:10:11.002Z,78.20
2018-08-09T08:12:40.294Z,82.20
2018-08-09T08:15:10.661Z,83.00
2018-08-09T08:17:39.954Z,81.40
2018-08-09T08:20:09.602Z,84.60
2018-08-09T08:22:38.612Z,84.90
2018-08-09T08:25:08.024Z,86.20
2018-08-09T08:27:37.439Z,87.30
2018-08-09T08:30:10.513Z,84.20
2018-08-09T08:32:40.524Z,85.10
2018-08-09T08:35:09.994Z,85.70
2018-08-09T08:37:39.421Z,83.90
2018-08-09T08:40:09.108Z,85.20
2018-08-09T08:42:38.549Z,84.00
2018-08-09T08:45:10.918Z,84.40
2018-08-09T08:47:40.101Z,85.40
2018-08-09T08:50:09.152Z,84.10
2018-08-09T08:52:38.235Z,84.60
2018-08-09T08:55:08.932Z,83.90
2018-08-09T08:57:38.220Z,83.30
2018-08-09T09:00:08.996Z,83.20
2018-08-09T09:02:38.582Z,83.60
2018-08-09T09:05:09.667Z,85.00
2018-08-09T09:07:39.120Z,85.30
2018-08-09T09:10:09.891Z,85.00
2018-08-09T09:12:38.976Z,84.60
2018-08-09T09:15:10.436Z,84.60
2018-08-09T09:17:40.092Z,84.30
2018-08-09T09:20:11.802Z,84.20
2018-08-09T09:22:41.399Z,83.60
2018-08-09T09:25:11.016Z,83.40
2018-08-09T09:27:40.204Z,84.40
2018-08-09T09:30:12.426Z,83.30
2018-08-09T09:32:41.486Z,83.90
2018-08-09T09:35:10.744Z,83.00
2018-08-09T09:37:40.581Z,82.80
2018-08-09T09:40:10.073Z,83.00
2018-08-09T09:42:39.781Z,82.70
2018-08-09T09:45:10.014Z,82.50
2018-08-09T09:47:39.155Z,82.90
2018-08-09T09:50:09.721Z,82.60
2018-08-09T09:52:38.798Z,82.20
2018-08-09T09:55:07.937Z,83.30
2018-08-09T09:57:37.445Z,83.10
2018-08-09T10:00:11.917Z,83.20
2018-08-09T10:02:41.005Z,83.20
2018-08-09T10:05:10.364Z,83.60
2018-08-09T10:07:39.899Z,83.20
2018-08-09T10:10:09.527Z,83.50
2018-08-09T10:12:38.754Z,83.20
2018-08-09T10:15:07.985Z,82.60
2018-08-09T10:17:37.483Z,83.60
2018-08-09T10:20:06.983Z,83.20
2018-08-09T10:22:36.309Z,82.50
2018-08-09T10:25:05.873Z,82.20
2018-08-09T10:27:35.053Z,82.20
2018-08-09T10:30:05.625Z,81.70
2018-08-09T10:32:34.821Z,81.70
2018-08-09T10:35:03.993Z,81.20
2018-08-09T10:37:33.526Z,82.10
2018-08-09T10:40:02.741Z,81.90
2018-08-09T10:42:31.818Z,82.00
2018-08-09T10:45:00.907Z,82.00
2018-08-09T10:47:31.079Z,81.20
2018-08-09T10:50:00.155Z,81.70
2018-08-09T10:52:29.323Z,81.30
2018-08-09T10:54:58.421Z,81.30
2018-08-09T10:57:27.530Z,81.10
2018-08-09T10:59:56.650Z,81.40
2018-08-09T11:02:25.689Z,80.90
2018-08-09T11:04:54.845Z,81.80
2018-08-09T11:07:24.041Z,80.70
2018-08-09T11:09:53.095Z,80.60
2018-08-09T11:12:22.191Z,80.60
2018-08-09T11:14:51.277Z,80.70
2018-08-09T11:17:20.407Z,80.30
2018-08-09T11:19:49.457Z,80.30
2018-08-09T11:22:18.567Z,79.60
2018-08-09T11:24:47.677Z,79.40
2018-08-09T11:27:16.792Z,79.40
2018-08-09T11:29:45.823Z,80.00
2018-08-09T11:32:15.181Z,80.00
2018-08-09T11:34:44.245Z,81.30
2018-08-09T11:37:13.341Z,80.50
2018-08-09T11:39:42.496Z,80.70
2018-08-09T11:42:12.526Z,80.70
2018-08-09T11:44:41.532Z,81.10
2018-08-09T11:47:10.668Z,81.10
2018-08-09T11:49:39.928Z,81.70
2018-08-09T11:52:08.978Z,82.60
2018-08-09T11:54:38.053Z,82.80
2018-08-09T11:58:31.662Z,82.20
2018-08-09T12:01:00.717Z,83.60
2018-08-09T12:03:30.011Z,83.10
2018-08-09T12:05:59.128Z,83.00
2018-08-09T12:08:28.190Z,85.20
2018-08-09T12:10:57.283Z,85.90
2018-08-09T12:13:26.338Z,85.00
2018-08-09T12:15:55.472Z,84.90
2018-08-09T12:18:24.515Z,85.00
2018-08-09T12:20:53.655Z,85.80
2018-08-09T12:23:22.610Z,84.30
2018-08-09T12:25:51.750Z,85.10
2018-08-09T12:28:20.793Z,84.30
2018-08-09T12:30:49.880Z,86.30
2018-08-09T12:33:19.020Z,86.60
2018-08-09T12:35:48.140Z,85.40
2018-08-09T12:38:17.307Z,86.50
2018-08-09T12:40:46.383Z,85.60
2018-08-09T12:43:15.397Z,86.20
2018-08-09T12:45:44.487Z,86.40
2018-08-09T12:48:13.528Z,86.30
2018-08-09T12:50:42.635Z,86.40
2018-08-09T12:53:11.675Z,85.90
2018-08-09T12:55:40.789Z,85.90
2018-08-09T12:58:09.857Z,85.60
2018-08-09T13:00:38.897Z,85.20
2018-08-09T13:03:08.345Z,85.10
2018-08-09T13:05:37.511Z,84.60
2018-08-09T13:08:06.637Z,85.60
2018-08-09T13:10:35.705Z,86.70
2018-08-09T13:13:04.797Z,86.00
2018-08-09T13:15:33.961Z,86.40
2018-08-09T13:18:03.109Z,86.20
2018-08-09T13:20:32.101Z,87.10
2018-08-09T13:24:04.725Z,86.50
2018-08-09T13:26:33.757Z,86.10
2018-08-09T13:29:03.087Z,86.20
2018-08-09T13:31:32.198Z,85.90
2018-08-09T13:34:01.334Z,85.90
2018-08-09T13:36:30.557Z,85.70
2018-08-09T13:38:59.777Z,85.50
2018-08-09T13:41:28.841Z,84.70
2018-08-09T13:43:57.969Z,85.50
2018-08-09T13:46:27.745Z,84.40
2018-08-09T13:48:57.177Z,83.90
2018-08-09T13:51:26.381Z,84.10
2018-08-09T14:00:52.750Z,83.30
2018-08-09T14:03:21.973Z,83.20
2018-08-09T14:05:51.087Z,83.70
2018-08-09T14:08:20.217Z,82.60
2018-08-09T14:10:49.420Z,83.20
2018-08-09T14:13:18.630Z,80.50
2018-08-09T14:15:47.801Z,80.40
2018-08-09T14:18:16.877Z,81.20
2018-08-09T14:20:46.065Z,80.60
2018-08-09T14:23:15.077Z,81.10
2018-08-09T14:25:44.092Z,78.90
2018-08-09T14:28:13.316Z,77.70
2018-08-09T14:30:42.481Z,76.90
2018-08-09T14:33:11.496Z,75.70
2018-08-09T14:35:40.676Z,76.00
2018-08-09T14:38:09.883Z,75.90
2018-08-09T14:40:39.190Z,77.00
2018-08-09T14:43:08.341Z,77.30
2018-08-09T14:45:37.487Z,77.70
2018-08-09T14:48:07.108Z,78.30
2018-08-09T14:50:36.225Z,79.20
2018-08-09T14:53:05.359Z,79.90
2018-08-09T14:55:34.437Z,80.80
2018-08-09T14:58:03.524Z,80.90
2018-08-09T15:00:32.696Z,80.90
2018-08-09T15:03:01.773Z,80.20
2018-08-09T15:05:30.864Z,80.90
2018-08-09T15:08:00.197Z,80.00
2018-08-09T15:10:29.569Z,80.30
2018-08-09T15:12:58.749Z,80.90
2018-08-09T15:15:28.004Z,80.10
2018-08-09T15:17:57.733Z,80.80
2018-08-09T15:20:26.837Z,79.90
2018-08-09T15:22:55.979Z,80.30
2018-08-09T15:25:25.128Z,80.30
2018-08-09T15:27:54.172Z,80.80
2018-08-09T15:32:52.832Z,79.30
2018-08-09T15:35:52.930Z,79.30
2018-08-09T15:38:22.840Z,79.10
2018-08-09T15:40:51.975Z,79.00
2018-08-09T15:43:21.040Z,79.20
2018-08-09T15:45:50.154Z,79.70
2018-08-09T15:48:19.394Z,79.70
2018-08-09T15:50:48.482Z,80.20
2018-08-09T15:53:17.611Z,79.70
2018-08-09T15:55:46.694Z,79.30
2018-08-09T15:58:15.843Z,78.80
2018-08-09T16:00:44.990Z,79.30
2018-08-09T16:03:14.068Z,78.90
2018-08-09T16:05:43.200Z,77.20
2018-08-09T16:08:12.245Z,76.10
2018-08-09T16:10:41.398Z,75.30
2018-08-09T16:13:10.621Z,75.80
2018-08-09T16:15:39.910Z,74.50
2018-08-09T16:18:08.962Z,74.50
2018-08-09T16:20:38.064Z,75.00
2018-08-09T16:23:07.123Z,74.60
2018-08-09T16:25:36.216Z,74.80
2018-08-09T16:28:05.948Z,75.30
2018-08-09T16:30:35.077Z,75.60
2018-08-09T16:33:04.599Z,76.30
2018-08-09T16:35:33.757Z,76.10
2018-08-09T16:38:02.852Z,76.50
2018-08-09T16:40:31.937Z,76.70
2018-08-09T16:43:01.080Z,76.50
2018-08-09T16:45:30.091Z,76.90
2018-08-09T16:47:59.146Z,77.80
2018-08-09T16:50:28.278Z,78.60
2018-08-09T16:52:57.328Z,77.90
2018-08-09T16:55:26.920Z,78.10
2018-08-09T16:57:56.115Z,78.90
2018-08-09T17:00:25.721Z,79.00
2018-08-09T17:02:55.540Z,79.20
2018-08-09T17:05:25.968Z,79.40
2018-08-09T17:07:55.145Z,78.70
2018-08-09T17:10:25.269Z,78.90
2018-08-09T17:12:54.429Z,78.70
2018-08-09T17:15:25.755Z,78.70
2018-08-09T17:17:55.425Z,78.70
2018-08-09T17:20:26.873Z,78.10
2018-08-09T17:22:56.258Z,77.80
2018-08-09T17:25:25.272Z,77.90
2018-08-09T17:27:54.420Z,77.80
2018-08-09T17:30:25.142Z,77.90
2018-08-09T17:32:54.461Z,77.80
2018-08-09T17:35:23.569Z,78.40
2018-08-09T17:37:53.265Z,79.10
2018-08-09T17:40:25.469Z,80.40
2018-08-09T17:42:55.400Z,81.10
2018-08-09T17:45:28.673Z,81.40
2018-08-09T17:47:57.969Z,82.20
2018-08-09T17:50:27.025Z,82.50
2018-08-09T17:52:57.601Z,82.30
2018-08-09T17:55:26.764Z,82.50
2018-08-09T17:57:55.892Z,81.90
2018-08-09T18:00:29.413Z,82.10
2018-08-09T18:02:58.634Z,82.30
2018-08-09T18:05:27.711Z,81.70
2018-08-09T18:07:57.693Z,81.60
2018-08-09T18:10:29.053Z,81.30
2018-08-09T18:12:58.399Z,81.50
2018-08-09T18:15:28.972Z,81.20
2018-08-09T18:17:58.593Z,81.60
2018-08-09T18:20:31.435Z,81.40
2018-08-09T18:23:00.585Z,81.30
2018-08-09T18:25:29.747Z,81.40
2018-08-09T18:27:58.791Z,81.60
2018-08-09T18:30:27.849Z,81.30
2018-08-09T18:32:56.934Z,81.40
2018-08-09T18:35:25.980Z,81.60
2018-08-09T18:37:55.164Z,81.70
2018-08-09T18:40:26.056Z,81.90
2018-08-09T18:42:55.146Z,82.50
2018-08-09T18:45:24.494Z,82.20
2018-08-09T18:47:53.634Z,82.40
2018-08-09T18:50:24.552Z,82.40
2018-08-09T18:52:53.704Z,82.00
2018-08-09T18:55:22.781Z,82.30
2018-08-09T18:57:52.033Z,82.60
2018-08-09T19:00:24.342Z,82.80
2018-08-09T19:02:53.688Z,82.70
2018-08-09T19:05:23.250Z,82.90
2018-08-09T19:07:52.292Z,83.00
2018-08-09T19:10:26.830Z,82.60
2018-08-09T19:12:56.008Z,82.60
2018-08-09T19:15:25.158Z,83.10
2018-08-09T19:17:54.409Z,82.60
2018-08-09T19:20:31.894Z,82.90
2018-08-09T19:23:01.358Z,83.80
2018-08-09T19:25:30.431Z,83.70
2018-08-09T19:27:59.548Z,83.50
2018-08-09T19:30:29.511Z,83.70
2018-08-09T19:32:58.719Z,83.90
2018-08-09T19:35:27.897Z,83.60
2018-08-09T19:37:56.909Z,83.90
2018-08-09T19:40:27.567Z,84.20
2018-08-09T19:42:56.942Z,84.90
2018-08-09T19:45:26.100Z,84.80
2018-08-09T19:47:56.252Z,85.70
2018-08-09T19:50:25.886Z,86.60
2018-08-09T19:52:55.034Z,86.80
2018-08-09T19:55:25.357Z,87.50
2018-08-09T19:57:54.503Z,86.70
2018-08-09T20:00:27.837Z,87.60
2018-08-09T20:02:56.925Z,88.50
2018-08-09T20:05:26.041Z,88.90
2018-08-09T20:07:55.347Z,89.30
2018-08-09T20:10:24.409Z,89.00
2018-08-09T20:12:53.509Z,89.20
2018-08-09T20:15:23.953Z,89.20
2018-08-09T20:17:53.025Z,89.50
2018-08-09T20:20:24.670Z,88.90
2018-08-09T20:22:53.973Z,89.60
2018-08-09T20:25:23.343Z,89.20
2018-08-09T20:27:52.469Z,89.10
2018-08-09T20:30:21.575Z,88.70
2018-08-09T20:32:50.731Z,88.40
2018-08-09T20:35:23.994Z,88.30
2018-08-09T20:37:53.426Z,88.50
2018-08-09T20:40:23.411Z,88.90
2018-08-09T20:42:53.464Z,88.40
2018-08-09T20:45:23.551Z,89.20
2018-08-09T20:47:52.589Z,88.50
2018-08-09T20:50:23.828Z,88.90
2018-08-09T20:52:53.236Z,89.20
2018-08-09T20:55:22.510Z,89.10
2018-08-09T20:57:52.513Z,90.30
2018-08-09T21:00:24.405Z,90.80
2018-08-09T21:02:54.909Z,90.30
2018-08-09T21:05:27.615Z,90.50
2018-08-09T21:07:57.185Z,90.60
2018-08-09T21:10:26.641Z,90.50
2018-08-09T21:12:56.117Z,90.70
2018-08-09T21:15:25.350Z,91.10
2018-08-09T21:17:54.377Z,90.60
2018-08-09T21:20:23.455Z,90.80
2018-08-09T21:22:52.733Z,90.40
2018-08-09T21:25:21.848Z,90.50
2018-08-09T21:27:51.009Z,90.60
2018-08-09T21:30:22.338Z,90.70
2018-08-09T21:32:52.067Z,90.40
2018-08-09T21:35:21.202Z,90.40
2018-08-09T21:37:50.269Z,90.50
2018-08-09T21:40:20.329Z,90.40
2018-08-09T21:42:49.391Z,90.20
2018-08-09T21:45:19.676Z,90.60
2018-08-09T21:47:48.773Z,90.20
2018-08-09T21:50:19.419Z,90.40
2018-08-09T21:52:48.566Z,90.00
2018-08-09T21:55:17.668Z,90.20
2018-08-09T21:57:47.318Z,90.30
2018-08-09T22:00:24.040Z,90.10
2018-08-09T22:02:53.089Z,90.00
2018-08-09T22:05:27.606Z,90.10
2018-08-09T22:09:06.379Z,90.10
2018-08-09T22:12:39.612Z,90.30
2018-08-09T22:15:13.912Z,89.50
2018-08-09T22:17:48.302Z,90.00
2018-08-09T22:20:22.645Z,89.80
2018-08-09T22:22:51.730Z,90.10
2018-08-09T22:25:20.744Z,90.10
2018-08-09T22:27:49.776Z,89.70
2018-08-09T22:30:18.779Z,90.10
2018-08-09T22:32:47.885Z,88.50
2018-08-09T22:35:16.972Z,87.90
2018-08-09T22:37:46.106Z,89.80
2018-08-09T22:40:15.171Z,89.20
2018-08-09T22:42:44.249Z,88.70
2018-08-09T22:45:13.363Z,88.70
2018-08-09T22:47:42.452Z,89.80
2018-08-09T22:50:11.534Z,88.10
2018-08-09T22:52:40.639Z,89.00
2018-08-09T22:55:09.784Z,90.10
2018-08-09T22:57:38.804Z,90.40
2018-08-09T23:00:14.366Z,90.00
2018-08-09T23:02:43.529Z,90.00
2018-08-09T23:05:12.660Z,90.00
2018-08-09T23:07:41.953Z,90.60
2018-08-09T23:10:11.098Z,90.20
2018-08-09T23:12:40.126Z,90.50
2018-08-09T23:15:09.859Z,90.20
2018-08-09T23:17:39.263Z,89.80
2018-08-09T23:20:09.281Z,89.50
2018-08-09T23:22:38.389Z,88.80
2018-08-09T23:25:11.617Z,88.40
2018-08-09T23:27:40.834Z,88.50
2018-08-09T23:30:11.020Z,87.90
2018-08-09T23:32:40.062Z,90.50
2018-08-09T23:35:10.421Z,90.00
2018-08-09T23:37:39.582Z,89.60
2018-08-09T23:40:10.036Z,90.00
2018-08-09T23:42:39.498Z,90.20
2018-08-09T23:45:09.534Z,89.40
2018-08-09T23:47:39.997Z,90.50
2018-08-09T23:50:10.917Z,90.40
2018-08-09T23:52:40.691Z,90.40
2018-08-09T23:55:13.377Z,90.90
2018-08-09T23:57:42.521Z,91.60
